Villisca, IA

1:21 AM CST on February 06, 2016 (GMT -0600)
Dowtown Villisca, Iowa | | Change Station
CLOSE
Current Station
Personal Weather Station
Location: Villisca, IA
Elevation: 1106 ft
Nearby Weather Stations

Elev 1106 ft 40.93 °N, 94.98 °W | Updated 1 second ago

Overcast
Overcast
27.5 °F
Feels Like 28 °F
N
0.0
Wind Variable Wind from North
Gusts 1.6 mph

Today
High -- | Low -- °F
--% Chance of Precip.
Yesterday
High -- | Low -- °F
Precip. -- in
Pressure 30.28 in
Visibility 3.0 miles
Clouds Overcast 3100 ft
Windchill 28 °F
Dew Point 26 °F
Humidity 94%
Rainfall 0.00 in
Snow Depth Not available.
7:25 AM 5:42 PM
Waning Crescent, 7% visible
METAR KICL 060655Z AUTO 00000KT 3SM BR OVC031 M04/M04 A3028 RMK AO2
Pressure 30.28 in
Visibility 3.0 miles
Clouds Overcast 3100 ft
Windchill 28 °F
Dew Point 26 °F
Humidity 94%
Rainfall 0.00 in
Snow Depth Not available.
7:25 AM 5:42 PM
Waning Crescent, 7% visible
METAR KICL 060655Z AUTO 00000KT 3SM BR OVC031 M04/M04 A3028 RMK AO2

10-Day Weather Forecast

Almanac

Astronomy

Feb. 06, 2016 Rise Set
Actual Time
Civil Twilight
Nautical Twilight
Astronomical Twilight
Moon
Length of Visible Light
Length of Day
Tomorrow will be .
, % of the Moon is Illuminated

Today's Extremes

State Highs State Lows

Community

WunderPhotos

Upload Photos

1,890,933 photos uploaded!

WunderBlog® & News

Nearby

Air Quality

  Air Quality AQ Index Pollutant
Not available.

Snow Depth

Station Depth Elevation

Earthquake Activity

City Distance Mag. Time & Date
Minimum magnitude displayed is 2.5.

Coastal Water Temperatures

Place Temperature

Stations

Nearby Weather Stations

Station Location Temp. Windchill Dew Point Humidity Wind Precip. Elev Updated Type
                   

Watches & Warnings

There are currently no watches in effect.